KSUE

Door County Cherryland Airport

Sturgeon Bay, Wisconsin, USA
METAR KSUE 181256Z AUTO 15003KT 10SM CLR M07/M08 A3019 RMK AO2 SLP249 T10721083 FZRANO
Observed Flight Rules
Dec-18 @ 12:56 UTC (13 minutes ago) Visual Flight Rules
Wind Visibility Clouds
150° at 3 knots 10 miles
  • Clear skies
Temperatures Readings
Current -7°C / 19°F
Dewpoint -8°C / 18°F
Humidity 93%
Altimeter 30.19" Hg
Pressure 1024.9 hPa
Elevation 221
METAR KSUE 181256Z AUTO 15003KT 10SM CLR M07/M08 A3019 RMK AO2 SLP249 T10721083 FZRANO
Observed Flight Rules
Dec-18 @ 12:56 UTC
(13 minutes ago)
VFR
Wind Visibility
150° at 3 knots 10 miles
Clouds
  • Clear skies
Temperature Dewpoint
-7°C / 19°F -8°C / 18°F
Humidity Altimeter Pressure
93% 30.19" Hg 1024.9 hPa